^^
Your Local Weather - Clay, NY Station Historical Data
Daily Summary for February 18, 2017 Units:  Metric    English   Both
« Previous Day
Next Day »
Daily Weekly Monthly Yearly Custom
  High: Low: Average:
Temperature: 15.8 °C -8.4 °C 4.2 °C
Dew Point: 2.6 °C -10.2 °C -3 °C
Humidity: 88% 38% 63%
Wind Speed: 6.4km/h 0km/h 2.1km/h
Wind Gust: 14.5km/h - -
Wind- - SSE
Pressure: 1009.4 hPa 998.9 hPa -
Precipitation: 1.02 mm    
Historical Graphs
 
 
Tabular Data for February 18, 2017
Time Temperature Dew Point Pressure Wind Wind Speed Wind Gust Humidity Rainfall Rate (Hourly) solar
00:02 -8.3 °C -9.9 °C 1009.4 hPa Calm   1.6 km/h 88% 0 mm 0 W/m2
00:08 -8.4 °C -10 °C 1009 hPa Calm   1.6 km/h 88% 0 mm 0 W/m2
00:14 -8.3 °C -9.9 °C 1009 hPa Calm     88% 0 mm 0 W/m2
00:20 -8.2 °C -9.8 °C 1009 hPa Calm   1.6 km/h 88% 0 mm 0 W/m2
00:26 -8.4 °C -10.2 °C 1008.7 hPa NE 1.6 km/h 3.2 km/h 87% 0 mm 0 W/m2
00:32 -7.9 °C -9.6 °C 1008.4 hPa ENE 3.2 km/h 3.2 km/h 88% 0 mm 0 W/m2
00:38 -7.2 °C -8.9 °C 1008.4 hPa ENE 1.6 km/h 3.2 km/h 88% 0 mm 0 W/m2
00:44 -7.1 °C -8.9 °C 1008.4 hPa Calm   1.6 km/h 87% 0 mm 0 W/m2
00:50 -7.5 °C -9.6 °C 1008.4 hPa Calm   3.2 km/h 85% 0 mm 0 W/m2
00:56 -7.4 °C -9.6 °C 1008.4 hPa ENE 1.6 km/h 3.2 km/h 85% 0 mm 0 W/m2
01:02 -7.6 °C -9.5 °C 1008.4 hPa ENE 1.6 km/h 3.2 km/h 86% 0 mm 0 W/m2
01:08 -7.6 °C -9.5 °C 1008.4 hPa Calm   3.2 km/h 86% 0 mm 0 W/m2
01:14 -7.6 °C -9.5 °C 1008.4 hPa Calm     86% 0 mm 0 W/m2
01:20 -7.4 °C -9.3 °C 1008 hPa ENE 1.6 km/h 4.8 km/h 86% 0 mm 0 W/m2
01:26 -6.8 °C -8.8 °C 1008 hPa ENE 3.2 km/h 4.8 km/h 86% 0 mm 0 W/m2
01:32 -6.4 °C -8.6 °C 1008 hPa NE 4.8 km/h 9.7 km/h 85% 0 mm 0 W/m2
01:38 -6.2 °C -8.4 °C 1008 hPa ENE 3.2 km/h 9.7 km/h 84% 0 mm 0 W/m2
01:40 -6.1 °C -8.4 °C 1008 hPa ENE 3.2 km/h 3.2 km/h 84% 0 mm 0 W/m2
01:46 -6.1 °C -8.6 °C 1007.7 hPa East 3.2 km/h 4.8 km/h 83% 0 mm 0 W/m2
01:52 -5.9 °C -8.3 °C 1007.7 hPa East 3.2 km/h 3.2 km/h 83% 0 mm 0 W/m2
01:58 -5.9 °C -8.4 °C 1007.7 hPa East 1.6 km/h 3.2 km/h 83% 0 mm 0 W/m2
02:04 -5.9 °C -8.4 °C 1007.3 hPa East 1.6 km/h 1.6 km/h 83% 0 mm 0 W/m2
02:10 -5.8 °C -8.3 °C 1007.3 hPa East 1.6 km/h 1.6 km/h 83% 0 mm 0 W/m2
02:16 -5.8 °C -8.3 °C 1007.3 hPa Calm   1.6 km/h 83% 0 mm 0 W/m2
02:22 -5.8 °C -8.3 °C 1007.3 hPa Calm   4.8 km/h 83% 0 mm 0 W/m2
02:28 -5.9 °C -8.3 °C 1007.3 hPa ESE 1.6 km/h 4.8 km/h 83% 0 mm 0 W/m2
02:34 -5.9 °C -8.4 °C 1007.3 hPa Calm   3.2 km/h 82% 0 mm 0 W/m2
02:40 -6.1 °C -8.6 °C 1007 hPa Calm     82% 0 mm 0 W/m2
02:46 -6.3 °C -8.8 °C 1007 hPa Calm   1.6 km/h 82% 0 mm 0 W/m2
02:52 -6.6 °C -8.9 °C 1007 hPa Calm     83% 0 mm 0 W/m2
02:58 -6.8 °C -9.2 °C 1007 hPa Calm     83% 0 mm 0 W/m2
03:04 -7.2 °C -9.6 °C 1006.7 hPa Calm   6.4 km/h 83% 0 mm 0 W/m2
03:10 -7.1 °C -9.2 °C 1006.7 hPa East 1.6 km/h 4.8 km/h 85% 0 mm 0 W/m2
03:16 -6.7 °C -8.8 °C 1006.7 hPa ENE 3.2 km/h 4.8 km/h 85% 0 mm 0 W/m2
03:22 -6.7 °C -9 °C 1006.7 hPa ENE 3.2 km/h 3.2 km/h 84% 0 mm 0 W/m2
03:28 -6.6 °C -8.9 °C 1006.3 hPa NE 1.6 km/h 3.2 km/h 84% 0 mm 0 W/m2
03:34 -6.6 °C -8.9 °C 1006.3 hPa East 1.6 km/h 8 km/h 84% 0 mm 0 W/m2
03:40 -6.5 °C -8.8 °C 1006.3 hPa East 3.2 km/h 3.2 km/h 84% 0 mm 0 W/m2
03:46 -6.6 °C -8.8 °C 1006 hPa ENE 1.6 km/h 6.4 km/h 84% 0 mm 0 W/m2
03:52 -6.6 °C -8.8 °C 1006 hPa Calm     84% 0 mm 0 W/m2
03:58 -6.3 °C -8.6 °C 1006 hPa Calm   1.6 km/h 84% 0 mm 0 W/m2
04:04 -6.3 °C -8.7 °C 1006 hPa Calm   1.6 km/h 83% 0 mm 0 W/m2
04:10 -6.4 °C -8.8 °C 1006 hPa Calm     83% 0 mm 0 W/m2
04:16 -6.6 °C -8.8 °C 1005.6 hPa East 1.6 km/h 3.2 km/h 84% 0 mm 0 W/m2
04:22 -6.7 °C -8.9 °C 1005.6 hPa Calm   1.6 km/h 84% 0 mm 0 W/m2
04:28 -6.8 °C -9.1 °C 1005.6 hPa Calm   1.6 km/h 84% 0 mm 0 W/m2
04:34 -6.9 °C -9.1 °C 1005.6 hPa Calm     84% 0 mm 0 W/m2
04:40 -7 °C -9.2 °C 1005.6 hPa Calm     84% 0 mm 0 W/m2
04:46 -7.1 °C -9.2 °C 1005.6 hPa Calm     85% 0 mm 0 W/m2
04:52 -7.3 °C -9.5 °C 1005.3 hPa Calm     84% 0 mm 0 W/m2
04:58 -7.3 °C -9.4 °C 1005.3 hPa East 1.6 km/h 3.2 km/h 85% 0 mm 0 W/m2
05:04 -7.4 °C -9.5 °C 1005.3 hPa Calm   1.6 km/h 85% 0 mm 0 W/m2
05:10 -7.6 °C -9.7 °C 1005.3 hPa Calm   1.6 km/h 85% 0 mm 0 W/m2
05:16 -7.4 °C -9.4 °C 1005.3 hPa East 1.6 km/h 1.6 km/h 86% 0 mm 0 W/m2
05:22 -7.4 °C -9.3 °C 1005.3 hPa East 1.6 km/h 1.6 km/h 86% 0 mm 0 W/m2
05:28 -7.1 °C -9 °C 1005.3 hPa Calm   1.6 km/h 86% 0 mm 0 W/m2
05:34 -6.9 °C -9.1 °C 1005.3 hPa Calm   1.6 km/h 85% 0 mm 0 W/m2
05:40 -6.9 °C -9.1 °C 1005.3 hPa Calm     85% 0 mm 0 W/m2
05:46 -7.1 °C -9.3 °C 1005.3 hPa Calm     84% 0 mm 0 W/m2
05:52 -7.4 °C -9.5 °C 1005.3 hPa Calm   1.6 km/h 85% 0 mm 0 W/m2
05:58 -7.3 °C -9.3 °C 1005.3 hPa East 1.6 km/h 1.6 km/h 86% 0 mm 0 W/m2
06:04 -7.3 °C -9.2 °C 1005.3 hPa ENE 1.6 km/h 3.2 km/h 86% 0 mm 0 W/m2
06:10 -7.1 °C -9 °C 1005 hPa ENE 1.6 km/h 3.2 km/h 86% 0 mm 0 W/m2
06:16 -7 °C -9.1 °C 1005 hPa ENE 3.2 km/h 3.2 km/h 85% 0 mm 0 W/m2
06:22 -6.9 °C -9.2 °C 1005 hPa East 3.2 km/h 4.8 km/h 84% 0 mm 0 W/m2
06:28 -6.9 °C -9 °C 1004.6 hPa ENE 1.6 km/h 4.8 km/h 85% 0 mm 0 W/m2
06:34 -6.7 °C -8.8 °C 1004.6 hPa ENE 1.6 km/h 8 km/h 85% 0 mm 0 W/m2
06:40 -6.5 °C -8.8 °C 1004.6 hPa ENE 1.6 km/h 1.6 km/h 84% 0 mm 0 W/m2
06:46 -6.6 °C -8.9 °C 1004.6 hPa ENE 1.6 km/h 1.6 km/h 84% 0 mm 0 W/m2
06:52 -6.3 °C -8.6 °C 1004.3 hPa East 1.6 km/h 1.6 km/h 84% 0 mm 0 W/m2
06:58 -6.4 °C -8.8 °C 1004.6 hPa Calm   1.6 km/h 83% 0 mm 5 W/m2
07:04 -6.6 °C -8.9 °C 1004.6 hPa Calm     83% 0 mm 7 W/m2
07:10 -6.7 °C -9.1 °C 1004.6 hPa Calm     83% 0 mm 11 W/m2
07:16 -6.7 °C -8.9 °C 1004.6 hPa Calm   1.6 km/h 84% 0 mm 14 W/m2
07:22 -6.7 °C -9 °C 1004.6 hPa Calm     84% 0 mm 18 W/m2
07:34 -6.4 °C -8.7 °C 1004.6 hPa Calm     84% 0 mm 26 W/m2
07:40 -6.1 °C -8.3 °C 1004.3 hPa ENE 1.6 km/h 1.6 km/h 84% 0 mm 39 W/m2
07:46 -5.7 °C -8.1 °C 1004.3 hPa East 1.6 km/h 3.2 km/h 83% 0 mm 33 W/m2
07:52 -5.2 °C -7.8 °C 1004.3 hPa East 1.6 km/h 1.6 km/h 82% 0 mm 42 W/m2
07:58 -4.6 °C -7.5 °C 1004.3 hPa East 3.2 km/h 6.4 km/h 80% 0 mm 49 W/m2
08:04 -4.1 °C -7.3 °C 1004.3 hPa East 3.2 km/h 4.8 km/h 78% 0 mm 128 W/m2
08:10 -3.7 °C -7.1 °C 1004.3 hPa East 1.6 km/h 3.2 km/h 77% 0 mm 172 W/m2
08:16 -3.2 °C -6.9 °C 1004.3 hPa East 1.6 km/h 3.2 km/h 75% 0 mm 132 W/m2
08:22 -2.8 °C -6.8 °C 1004.3 hPa ENE 3.2 km/h 4.8 km/h 74% 0 mm 188 W/m2
08:28 -2.6 °C -6.8 °C 1004.3 hPa ENE 3.2 km/h 6.4 km/h 73% 0 mm 188 W/m2
08:34 -2.4 °C -6.8 °C 1004.3 hPa East 3.2 km/h 6.4 km/h 72% 0 mm 207 W/m2
08:40 -1.9 °C -6.5 °C 1003.9 hPa SE 3.2 km/h 3.2 km/h 71% 0 mm 225 W/m2
08:46 -1.6 °C -6.4 °C 1003.6 hPa ENE 3.2 km/h 3.2 km/h 70% 0 mm 262 W/m2
08:52 -1.3 °C -6.3 °C 1003.6 hPa ENE 3.2 km/h 3.2 km/h 69% 0 mm 297 W/m2
08:58 -0.9 °C -6.1 °C 1003.6 hPa East 3.2 km/h 3.2 km/h 68% 0 mm 316 W/m2
09:04 -0.7 °C -6.1 °C 1003.6 hPa East 3.2 km/h 3.2 km/h 67% 0 mm 332 W/m2
09:10 -0.5 °C -6.1 °C 1003.6 hPa SE 3.2 km/h 4.8 km/h 66% 0 mm 341 W/m2
09:16 0.1 °C -5.7 °C 1003.6 hPa ENE 3.2 km/h 4.8 km/h 65% 0 mm 346 W/m2
09:22 0.5 °C -5.1 °C 1003.6 hPa SE 1.6 km/h 4.8 km/h 66% 0 mm 380 W/m2
09:28 0.9 °C -5.2 °C 1003.3 hPa East 1.6 km/h 4.8 km/h 64% 0 mm 396 W/m2
09:34 1.5 °C -4.8 °C 1003.3 hPa East 1.6 km/h 1.6 km/h 63% 0 mm 411 W/m2
09:40 1.9 °C -4.8 °C 1003.3 hPa ENE 1.6 km/h 1.6 km/h 61% 0 mm 432 W/m2
09:46 2.4 °C -4.8 °C 1003.3 hPa ENE 1.6 km/h 4.8 km/h 59% 0 mm 410 W/m2
09:52 2.4 °C -4.6 °C 1003.6 hPa ENE 1.6 km/h 3.2 km/h 60% 0 mm 353 W/m2
09:58 2.5 °C -4.7 °C 1003.3 hPa Calm   3.2 km/h 59% 0 mm 515 W/m2
10:04 3.1 °C -3.9 °C 1003.3 hPa ENE 1.6 km/h 3.2 km/h 60% 0 mm 533 W/m2
10:10 3.3 °C -4.2 °C 1003.3 hPa ESE 1.6 km/h 1.6 km/h 58% 0 mm 260 W/m2
10:16 3.4 °C -4.3 °C 1002.9 hPa NE 3.2 km/h 4.8 km/h 57% 0 mm 519 W/m2
10:22 3.7 °C -4.3 °C 1002.6 hPa ENE 3.2 km/h 3.2 km/h 56% 0 mm 580 W/m2
10:28 3.8 °C -4.2 °C 1002.6 hPa ENE 3.2 km/h 6.4 km/h 56% 0 mm 552 W/m2
10:34 4 °C -4 °C 1002.3 hPa ENE 3.2 km/h 12.9 km/h 56% 0 mm 577 W/m2
10:40 4.2 °C -3.8 °C 1002.3 hPa East 3.2 km/h 3.2 km/h 56% 0 mm 480 W/m2
10:46 4.3 °C -3.7 °C 1002.3 hPa East 1.6 km/h 4.8 km/h 56% 0 mm 193 W/m2
10:52 5.4 °C -3.4 °C 1001.9 hPa NE 1.6 km/h 1.6 km/h 53% 0 mm 566 W/m2
10:58 5.2 °C -3.8 °C 1001.9 hPa ENE 3.2 km/h 6.4 km/h 52% 0 mm 568 W/m2
11:04 5.8 °C -3 °C 1001.6 hPa East 3.2 km/h 3.2 km/h 53% 0 mm 571 W/m2
11:10 6.8 °C -2.4 °C 1001.6 hPa East 1.6 km/h 4.8 km/h 52% 0 mm 577 W/m2
11:16 7 °C -2.4 °C 1001.6 hPa East 1.6 km/h 4.8 km/h 51% 0 mm 587 W/m2
11:22 7.7 °C -2.7 °C 1001.6 hPa East 1.6 km/h 1.6 km/h 48% 0 mm 591 W/m2
11:28 7.8 °C -2.3 °C 1001.6 hPa East 1.6 km/h 4.8 km/h 49% 0 mm 598 W/m2
11:34 9 °C -2 °C 1001.6 hPa East 1.6 km/h 1.6 km/h 46% 0 mm 603 W/m2
11:40 9.2 °C -1.9 °C 1001.6 hPa Calm     46% 0 mm 608 W/m2
11:46 9.8 °C -2.2 °C 1001.6 hPa NE 1.6 km/h 6.4 km/h 43% 0 mm 610 W/m2
11:52 9.8 °C -2.2 °C 1001.2 hPa NE 1.6 km/h 1.6 km/h 43% 0 mm 617 W/m2
11:58 9.9 °C -1.8 °C 1001.2 hPa NE 1.6 km/h 3.2 km/h 44% 0 mm 622 W/m2
12:02 10.4 °C -1.6 °C 1001.2 hPa NE 1.6 km/h 6.4 km/h 43% 0 mm 619 W/m2
12:04 10.1 °C -2.3 °C 1001.2 hPa NE 1.6 km/h 6.4 km/h 42% 0 mm 617 W/m2
12:06 9.9 °C -2.1 °C 1001.2 hPa NNE 1.6 km/h 6.4 km/h 43% 0 mm 617 W/m2
12:12 10.8 °C -1.6 °C 1000.9 hPa NNE 1.6 km/h 1.6 km/h 42% 0 mm 617 W/m2
12:18 11.2 °C -1.6 °C 1000.9 hPa Calm   3.2 km/h 41% 0 mm 619 W/m2
12:24 10.7 °C -2.1 °C 1000.9 hPa NE 1.6 km/h 3.2 km/h 41% 0 mm 594 W/m2
12:30 11.4 °C -1.4 °C 1000.6 hPa NE 1.6 km/h 1.6 km/h 41% 0 mm 529 W/m2
12:36 11.8 °C -1.1 °C 1000.6 hPa Calm   3.2 km/h 41% 0 mm 631 W/m2
12:40 11.9 °C -0.9 °C 1000.6 hPa Calm     41% 0 mm 626 W/m2
12:44 12.4 °C -0.5 °C 1000.6 hPa Calm     41% 0 mm 621 W/m2
12:50 13 °C -0.3 °C 1000.6 hPa Calm     40% 0 mm 624 W/m2
12:56 13.8 °C 1.1 °C 1000.6 hPa WSW 1.6 km/h 6.4 km/h 42% 0 mm 613 W/m2
13:02 14.2 °C 1.1 °C 1000.2 hPa SW 4.8 km/h 4.8 km/h 41% 0 mm 613 W/m2
13:08 14.3 °C 1.2 °C 1000.2 hPa SW 4.8 km/h 12.9 km/h 41% 0 mm 603 W/m2
13:14 14.4 °C 1.3 °C 1000.2 hPa SW 6.4 km/h 8 km/h 41% 0 mm 596 W/m2
13:20 14.6 °C 1.1 °C 1000.2 hPa SW 4.8 km/h 4.8 km/h 40% 0 mm 589 W/m2
13:26 14.7 °C 1.2 °C 1000.2 hPa SW 4.8 km/h 9.7 km/h 40% 0 mm 584 W/m2
13:32 14.6 °C 1.4 °C 999.9 hPa SW 6.4 km/h 6.4 km/h 41% 0 mm 577 W/m2
13:38 14.7 °C 1.2 °C 999.9 hPa SW 6.4 km/h 11.3 km/h 40% 0 mm 563 W/m2
13:44 14.8 °C 1.3 °C 999.9 hPa SSW 6.4 km/h 6.4 km/h 40% 0 mm 571 W/m2
13:50 15 °C 1.5 °C 999.9 hPa SW 4.8 km/h 6.4 km/h 40% 0 mm 566 W/m2
13:56 15 °C 1.5 °C 999.2 hPa SW 4.8 km/h 8 km/h 40% 0 mm 559 W/m2
14:02 15.2 °C 1.3 °C 999.2 hPa WSW 4.8 km/h 4.8 km/h 39% 0 mm 541 W/m2
14:08 15 °C 1.5 °C 998.9 hPa SW 4.8 km/h 4.8 km/h 40% 0 mm 125 W/m2
14:14 15.2 °C 1.3 °C 998.9 hPa SW 4.8 km/h 4.8 km/h 39% 0 mm 538 W/m2
14:19 15.3 °C 1.4 °C 998.9 hPa SW 3.2 km/h 4.8 km/h 39% 0 mm 540 W/m2
14:26 15.7 °C 1.4 °C 998.9 hPa SW 3.2 km/h 4.8 km/h 38% 0 mm 534 W/m2
14:32 15.6 °C 1.3 °C 998.9 hPa SW 4.8 km/h 6.4 km/h 38% 0 mm 550 W/m2
14:38 15.8 °C 1.5 °C 998.9 hPa SW 4.8 km/h 6.4 km/h 38% 0 mm 517 W/m2
14:44 15.8 °C 1.5 °C 998.9 hPa SW 4.8 km/h 6.4 km/h 38% 0 mm 545 W/m2
14:50 15.7 °C 1.4 °C 998.9 hPa WNW 4.8 km/h 8 km/h 38% 0 mm 162 W/m2
14:56 15.7 °C 1.4 °C 998.9 hPa SSW 6.4 km/h 8 km/h 38% 0 mm 475 W/m2
15:02 15.6 °C 1.7 °C 998.9 hPa SW 4.8 km/h 8 km/h 39% 0 mm 276 W/m2
15:08 15.4 °C 1.6 °C 998.9 hPa WSW 6.4 km/h 8 km/h 39% 0 mm 229 W/m2
15:14 15.4 °C 1.6 °C 998.9 hPa SSW 6.4 km/h 6.4 km/h 39% 0 mm 230 W/m2
15:20 15.1 °C 1.6 °C 998.9 hPa SW 3.2 km/h 3.2 km/h 40% 0 mm 216 W/m2
15:26 15.1 °C 1.6 °C 998.9 hPa SSW 1.6 km/h 3.2 km/h 40% 0 mm 323 W/m2
15:32 15.3 °C 1.4 °C 998.9 hPa SSW 3.2 km/h 6.4 km/h 39% 0 mm 178 W/m2
15:38 15.3 °C 1.7 °C 998.9 hPa West 4.8 km/h 8 km/h 40% 0 mm 241 W/m2
15:44 15.2 °C 1.7 °C 998.9 hPa SSW 4.8 km/h 4.8 km/h 40% 0 mm 135 W/m2
15:50 15.1 °C 1.6 °C 998.9 hPa WSW 3.2 km/h 3.2 km/h 40% 0 mm 163 W/m2
15:56 15.5 °C 1.6 °C 998.9 hPa SW 1.6 km/h 3.2 km/h 39% 0 mm 297 W/m2
16:02 15.8 °C 1.8 °C 998.9 hPa SW 1.6 km/h 6.4 km/h 39% 0 mm 216 W/m2
16:08 15.7 °C 1.8 °C 998.9 hPa SW 3.2 km/h 8 km/h 39% 0 mm 251 W/m2
16:14 15.7 °C 1.8 °C 999.2 hPa WSW 3.2 km/h 4.8 km/h 39% 0 mm 230 W/m2
16:20 15.4 °C 1.9 °C 999.2 hPa West 1.6 km/h 1.6 km/h 40% 0 mm 200 W/m2
16:26 15.3 °C 1.8 °C 999.5 hPa West 1.6 km/h 1.6 km/h 40% 0 mm 37 W/m2
16:32 15.2 °C 1.7 °C 999.5 hPa WSW 1.6 km/h 6.4 km/h 40% 0 mm 33 W/m2
16:38 15.2 °C 1.7 °C 999.5 hPa West 3.2 km/h 6.4 km/h 40% 0 mm 32 W/m2
16:43 15.1 °C 1.6 °C 999.9 hPa West 3.2 km/h 4.8 km/h 40% 0 mm 30 W/m2
16:50 15.1 °C 1.6 °C 999.9 hPa West 4.8 km/h 4.8 km/h 40% 0 mm 26 W/m2
16:56 14.9 °C 1.4 °C 999.9 hPa WSW 4.8 km/h 12.9 km/h 40% 0 mm 25 W/m2
17:02 14.8 °C 1.3 °C 999.9 hPa WNW 4.8 km/h 4.8 km/h 40% 0 mm 23 W/m2
17:08 14.6 °C 1.4 °C 999.9 hPa WNW 1.6 km/h 4.8 km/h 41% 0 mm 19 W/m2
17:14 14.4 °C 1.3 °C 999.9 hPa WSW 1.6 km/h 1.6 km/h 41% 0 mm 18 W/m2
17:20 14.2 °C 1.5 °C 999.9 hPa West 3.2 km/h 8 km/h 42% 0 mm 14 W/m2
17:26 14.1 °C 1.3 °C 999.9 hPa SW 3.2 km/h 8 km/h 42% 0 mm 12 W/m2
17:32 13.8 °C 1.4 °C 999.9 hPa WSW 1.6 km/h 4.8 km/h 43% 0 mm 9 W/m2
17:38 13.6 °C 1.6 °C 999.9 hPa WSW 3.2 km/h 4.8 km/h 44% 0 mm 5 W/m2
17:44 13.5 °C 1.4 °C 999.9 hPa WSW 3.2 km/h 6.4 km/h 44% 0 mm 0 W/m2
17:50 13.4 °C 1.7 °C 1000.2 hPa SW 1.6 km/h 1.6 km/h 45% 0 mm 0 W/m2
17:56 13.1 °C 1.4 °C 1000.2 hPa West 1.6 km/h 6.4 km/h 45% 0 mm 0 W/m2
18:02 12.9 °C 1.6 °C 1000.2 hPa West 1.6 km/h 1.6 km/h 46% 0 mm 0 W/m2
18:08 12.6 °C 1.6 °C 1000.6 hPa West 1.6 km/h 1.6 km/h 47% 0 mm 0 W/m2
18:14 12 °C 1.6 °C 1000.9 hPa Calm   3.2 km/h 49% 0 mm 0 W/m2
18:20 11.8 °C 1.7 °C 1000.9 hPa NW 3.2 km/h 4.8 km/h 50% 0 mm 0 W/m2
18:26 12 °C 1.6 °C 1001.2 hPa NW 4.8 km/h 6.4 km/h 49% 0 mm 0 W/m2
18:32 12.1 °C 1.7 °C 1001.2 hPa WNW 3.2 km/h 3.2 km/h 49% 0 mm 0 W/m2
18:38 11.8 °C 1.7 °C 1001.2 hPa WNW 1.6 km/h 3.2 km/h 50% 0 mm 0 W/m2
18:44 11.6 °C 1.8 °C 1001.2 hPa Calm   1.6 km/h 51% 0 mm 0 W/m2
18:50 11.4 °C 1.7 °C 1001.2 hPa WNW 1.6 km/h 1.6 km/h 51% 0 mm 0 W/m2
18:56 11.3 °C 1.8 °C 1001.2 hPa Calm   1.6 km/h 52% 0 mm 0 W/m2
19:02 11 °C 1.8 °C 1001.6 hPa Calm     53% 0 mm 0 W/m2
19:08 10.7 °C 1.4 °C 1001.6 hPa Calm     53% 0 mm 0 W/m2
19:14 10.4 °C 1.5 °C 1001.6 hPa Calm     54% 0 mm 0 W/m2
19:20 10.2 °C 1.6 °C 1001.6 hPa Calm   1.6 km/h 55% 0 mm 0 W/m2
19:26 9.9 °C 1.5 °C 1001.6 hPa Calm   1.6 km/h 56% 0 mm 0 W/m2
19:32 9.6 °C 1.4 °C 1001.9 hPa Calm     57% 0 mm 0 W/m2
19:38 9.5 °C 1.6 °C 1001.9 hPa WNW 1.6 km/h 4.8 km/h 58% 0 mm 0 W/m2
19:44 9.9 °C 1.8 °C 1002.3 hPa West 1.6 km/h 4.8 km/h 57% 0 mm 0 W/m2
19:50 9.9 °C 1.8 °C 1002.3 hPa Calm     57% 0 mm 0 W/m2
19:56 9.7 °C 1.6 °C 1002.3 hPa Calm     57% 0 mm 0 W/m2
20:08 9.2 °C 1.6 °C 1002.3 hPa Calm   3.2 km/h 59% 0 mm 0 W/m2
20:14 9.1 °C 1.7 °C 1002.3 hPa Calm     60% 0 mm 0 W/m2
20:20 9.1 °C 1.7 °C 1002.6 hPa Calm     60% 0 mm 0 W/m2
20:26 9.2 °C 1.8 °C 1002.6 hPa NW 1.6 km/h 3.2 km/h 60% 0 mm 0 W/m2
20:32 9.4 °C 1.8 °C 1002.6 hPa NW 1.6 km/h 1.6 km/h 59% 0 mm 0 W/m2
20:38 9.4 °C 1.8 °C 1002.6 hPa West 1.6 km/h 6.4 km/h 59% 0 mm 0 W/m2
20:44 9.4 °C 1.8 °C 1002.6 hPa Calm   1.6 km/h 59% 0 mm 0 W/m2
20:50 9.3 °C 1.9 °C 1002.6 hPa WSW 1.6 km/h 1.6 km/h 60% 0 mm 0 W/m2
21:02 9.2 °C 2.1 °C 1002.6 hPa WSW 1.6 km/h 3.2 km/h 61% 0 mm 0 W/m2
21:08 9.2 °C 2.1 °C 1002.6 hPa WNW 1.6 km/h 4.8 km/h 61% 0 mm 0 W/m2
21:14 9.2 °C 2.1 °C 1002.6 hPa WSW 1.6 km/h 3.2 km/h 61% 0 mm 0 W/m2
21:20 9.1 °C 2.2 °C 1002.6 hPa SW 1.6 km/h 1.6 km/h 62% 0 mm 0 W/m2
21:26 9.2 °C 2.1 °C 1002.6 hPa WNW 3.2 km/h 8 km/h 61% 0 mm 0 W/m2
21:32 9.3 °C 2.2 °C 1002.6 hPa WSW 3.2 km/h 4.8 km/h 61% 0 mm 0 W/m2
21:38 9.3 °C 2.2 °C 1002.6 hPa SW 4.8 km/h 4.8 km/h 61% 0 mm 0 W/m2
21:43 9.3 °C 2.1 °C 1002.6 hPa WSW 3.2 km/h 4.8 km/h 61% 0 mm 0 W/m2
21:50 9.3 °C 2.4 °C 1002.6 hPa WSW 3.2 km/h 3.2 km/h 62% 0 mm 0 W/m2
21:56 9.3 °C 2.1 °C 1002.6 hPa West 3.2 km/h 8 km/h 61% 0 mm 0 W/m2
22:02 9.1 °C 2.2 °C 1002.6 hPa WSW 3.2 km/h 3.2 km/h 62% 0 mm 0 W/m2
22:08 9.1 °C 2.2 °C 1002.6 hPa West 4.8 km/h 11.3 km/h 62% 0 mm 0 W/m2
22:14 9.1 °C 2.4 °C 1002.6 hPa WSW 4.8 km/h 8 km/h 63% 0 mm 0 W/m2
22:20 9 °C 2.3 °C 1002.9 hPa West 3.2 km/h 3.2 km/h 63% 0 mm 0 W/m2
22:26 8.9 °C 2.3 °C 1002.9 hPa SSW 3.2 km/h 4.8 km/h 63% 0 mm 0 W/m2
22:32 8.9 °C 2.2 °C 1002.9 hPa SW 3.2 km/h 3.2 km/h 63% 0 mm 0 W/m2
22:38 8.7 °C 2.1 °C 1003.3 hPa West 3.2 km/h 3.2 km/h 63% 0 mm 0 W/m2
22:44 8.6 °C 2.2 °C 1003.3 hPa SW 1.6 km/h 4.8 km/h 64% 0 mm 0 W/m2
22:50 8.6 °C 2.2 °C 1003.3 hPa WSW 1.6 km/h 14.5 km/h 64% 0 mm 0 W/m2
22:56 8.6 °C 2.2 °C 1003.3 hPa SW 3.2 km/h 14.5 km/h 64% 0 mm 0 W/m2
23:02 8.4 °C 2.2 °C 1003.3 hPa SSW 1.6 km/h 3.2 km/h 65% 0 mm 0 W/m2
23:08 8.3 °C 2.3 °C 1003.3 hPa West 1.6 km/h 3.2 km/h 66% 0 mm 0 W/m2
23:14 8.3 °C 2.3 °C 1003.3 hPa West 1.6 km/h 3.2 km/h 66% 0 mm 0 W/m2
23:20 8.4 °C 2.4 °C 1003.3 hPa WNW 1.6 km/h 1.6 km/h 66% 0 mm 0 W/m2
23:26 8.4 °C 2.4 °C 1003.3 hPa WSW 3.2 km/h 4.8 km/h 66% 0 mm 0 W/m2
23:32 8.3 °C 2.3 °C 1003.3 hPa WSW 3.2 km/h 4.8 km/h 66% 0 mm 0 W/m2
23:38 8.4 °C 2.4 °C 1003.6 hPa West 3.2 km/h 6.4 km/h 66% 0 mm 0 W/m2
23:44 8.4 °C 2.4 °C 1003.6 hPa West 3.2 km/h 3.2 km/h 66% 0 mm 0 W/m2
23:50 8.3 °C 2.6 °C 1003.6 hPa West 1.6 km/h 3.2 km/h 67% 0 mm 0 W/m2
23:56 8.3 °C 2.6 °C 1003.6 hPa West 3.2 km/h 3.2 km/h 67% 0 mm 0 W/m2
Country Meadow, Clay, NY, USA
Compliments of Weather Underground - 2 mb